TimeEST,TemperatureF,Dew PointF,Humidity,Sea Level PressureIn,VisibilityMPH,Wind Direction,Wind SpeedMPH,Gust SpeedMPH,PrecipitationIn,Events,Conditions,WindDirDegrees,DateUTC
12:54 AM,52.0,52.0,100,29.95,0.2,SE,9.2,-,N/A,Fog,Fog,140,2012-12-10 05:54:00
1:54 AM,52.0,52.0,100,29.91,0.2,SSE,3.5,-,N/A,Fog,Fog,160,2012-12-10 06:54:00
2:54 AM,52.0,51.1,97,29.90,0.2,Calm,Calm,-,N/A,Fog,Fog,0,2012-12-10 07:54:00
3:54 AM,53.1,52.0,96,29.88,0.2,Calm,Calm,-,N/A,Fog,Fog,0,2012-12-10 08:54:00
4:54 AM,53.1,52.0,96,29.85,0.2,Calm,Calm,-,N/A,Fog,Fog,0,2012-12-10 09:54:00
5:54 AM,53.1,52.0,96,29.84,0.2,Calm,Calm,-,N/A,Fog,Fog,0,2012-12-10 10:54:00
6:54 AM,53.1,52.0,96,29.81,0.2,Calm,Calm,-,N/A,Fog,Fog,0,2012-12-10 11:54:00
7:54 AM,53.1,52.0,96,29.81,0.2,Calm,Calm,-,N/A,Fog,Fog,0,2012-12-10 12:54:00
8:40 AM,53.6,53.6,100,29.81,0.8,Calm,Calm,-,N/A,,Overcast,0,2012-12-10 13:40:00
8:54 AM,54.0,53.1,97,29.80,1.0,Calm,Calm,-,N/A,,Overcast,0,2012-12-10 13:54:00
9:04 AM,53.6,53.6,100,29.81,0.5,Calm,Calm,-,N/A,,Overcast,0,2012-12-10 14:04:00
9:30 AM,55.4,53.6,94,29.81,1.0,Calm,Calm,-,N/A,,Overcast,0,2012-12-10 14:30:00
9:37 AM,55.4,53.6,94,29.80,4.0,Calm,Calm,-,N/A,,Overcast,0,2012-12-10 14:37:00
9:54 AM,57.9,54.0,87,29.79,5.0,Calm,Calm,-,N/A,,Mostly Cloudy,0,2012-12-10 14:54:00
10:54 AM,61.0,54.0,78,29.75,10.0,SE,4.6,-,N/A,,Overcast,140,2012-12-10 15:54:00
11:54 AM,61.0,54.0,78,29.73,10.0,Calm,Calm,-,N/A,,Overcast,0,2012-12-10 16:54:00
12:12 PM,60.8,53.6,77,29.74,8.0,Calm,Calm,-,0.00,Rain,Light Rain,0,2012-12-10 17:12:00
12:54 PM,59.0,55.9,90,29.72,4.0,West,3.5,-,0.01,Rain,Light Rain,280,2012-12-10 17:54:00
1:08 PM,59.0,55.4,88,29.72,7.0,West,4.6,-,0.00,,Overcast,260,2012-12-10 18:08:00
1:54 PM,61.0,54.0,78,29.68,10.0,SW,3.5,-,0.00,,Mostly Cloudy,230,2012-12-10 18:54:00
2:54 PM,62.1,52.0,70,29.65,10.0,West,6.9,-,N/A,,Mostly Cloudy,260,2012-12-10 19:54:00
3:54 PM,60.1,53.1,78,29.68,10.0,Calm,Calm,-,0.01,Rain,Light Rain,0,2012-12-10 20:54:00
4:54 PM,60.1,53.1,78,29.68,10.0,Calm,Calm,-,0.00,Rain,Light Rain,0,2012-12-10 21:54:00
5:54 PM,60.1,54.0,80,29.68,10.0,Calm,Calm,-,0.00,Rain,Light Rain,0,2012-12-10 22:54:00
6:54 PM,57.9,53.1,84,29.66,10.0,Calm,Calm,-,0.01,,Scattered Clouds,0,2012-12-10 23:54:00
7:54 PM,57.9,54.0,87,29.67,10.0,Calm,Calm,-,N/A,,Overcast,0,2012-12-11 00:54:00
8:54 PM,57.0,54.0,89,29.65,10.0,Calm,Calm,-,0.00,,Overcast,0,2012-12-11 01:54:00
9:54 PM,57.0,54.0,89,29.64,10.0,Calm,Calm,-,N/A,,Mostly Cloudy,0,2012-12-11 02:54:00
10:54 PM,55.9,53.1,90,29.65,10.0,North,4.6,-,N/A,,Overcast,360,2012-12-11 03:54:00
11:54 PM,50.0,39.9,68,29.73,10.0,West,15.0,26.5,0.00,,Overcast,280,2012-12-11 04:54:00